Time;durP1;ratioP1;P1;durP2;ratioP2;P2;SDS_P1;SDS_P2;PMS_P1;PMS_P2;Temp;Humidity;BMP_temperature;BMP_pressure;BME280_temperature;BME280_humidity;BME280_pressure;Samples;Min_cycle;Max_cycle;Signal;HPM_P1;HPM_P2
2022/06/10 00:00:28;;;;;;;16.93;11.22;;;;;;;14.90;71.45;100580.34;1758537;80;20956;-85
2022/06/10 00:02:56;;;;;;;14.58;11.70;;;;;;;14.90;71.27;100581.66;1758682;81;21050;-85
2022/06/10 00:05:27;;;;;;;20.10;13.40;;;;;;;14.89;71.10;100580.45;1758663;81;21863;-86
2022/06/10 00:07:58;;;;;;;16.17;11.33;;;;;;;14.86;71.11;100582.86;1758364;80;20963;-86
2022/06/10 00:10:26;;;;;;;17.32;12.13;;;;;;;14.85;71.11;100582.97;1758577;80;21003;-86
2022/06/10 00:12:54;;;;;;;18.37;12.37;;;;;;;14.78;71.55;100588.38;1758548;81;20987;-86
2022/06/10 00:15:21;;;;;;;22.40;12.82;;;;;;;14.78;71.55;100588.38;1758577;80;20960;-85
2022/06/10 00:17:47;;;;;;;14.85;12.07;;;;;;;14.74;71.45;100590.44;1758682;81;21101;-87
2022/06/10 00:20:16;;;;;;;19.67;12.07;;;;;;;14.67;71.69;100593.16;1758517;81;20896;-86
2022/06/10 00:22:43;;;;;;;14.18;10.10;;;;;;;14.67;71.69;100593.16;1758685;81;21450;-87
2022/06/10 00:25:11;;;;;;;15.88;11.53;;;;;;;14.65;71.81;100591.12;1758654;81;20991;-87
2022/06/10 00:27:39;;;;;;;17.27;10.90;;;;;;;14.64;71.96;100602.66;1758358;81;22552;-86
2022/06/10 00:30:07;;;;;;;16.23;10.48;;;;;;;14.61;72.01;100603.73;1758470;80;21874;-87
2022/06/10 00:32:34;;;;;;;19.37;10.50;;;;;;;14.58;72.18;100605.76;1758595;80;20821;-85
2022/06/10 00:35:00;;;;;;;15.35;11.55;;;;;;;14.53;72.37;100607.41;1758677;81;20920;-86
2022/06/10 00:37:27;;;;;;;17.95;11.55;;;;;;;14.50;72.49;100603.20;1758545;81;20963;-86
2022/06/10 00:39:54;;;;;;;14.60;11.73;;;;;;;14.48;72.71;100599.84;1758562;81;20908;-86
2022/06/10 00:42:21;;;;;;;14.75;10.93;;;;;;;14.46;72.64;100607.03;1758531;80;21342;-87
2022/06/10 00:44:55;;;;;;;17.92;12.28;;;;;;;14.43;72.63;100605.96;1758375;81;21421;-87
2022/06/10 00:47:36;;;;;;;15.70;11.48;;;;;;;14.40;72.68;100603.54;1757968;81;20892;-86
2022/06/10 00:50:28;;;;;;;16.57;11.60;;;;;;;14.39;72.79;100605.83;1758221;80;21342;-86
2022/06/10 00:52:59;;;;;;;17.15;12.78;;;;;;;14.35;72.64;100609.66;1758439;81;20908;-88
2022/06/10 00:55:29;;;;;;;19.27;12.45;;;;;;;14.33;72.55;100609.41;1758296;81;21306;-85
2022/06/10 00:58:26;;;;;;;15.08;11.75;;;;;;;14.29;72.75;100615.39;1758328;81;20869;-85
2022/06/10 01:00:53;;;;;;;21.23;13.68;;;;;;;14.25;72.83;100608.20;1751176;81;21334;-85
2022/06/10 01:03:21;;;;;;;17.67;13.13;;;;;;;14.22;72.80;100612.86;1752731;80;20917;-86
2022/06/10 01:05:47;;;;;;;23.18;14.03;;;;;;;14.20;72.83;100620.04;1745357;80;21190;-87
2022/06/10 01:08:15;;;;;;;18.37;12.20;;;;;;;14.17;72.93;100620.28;1745469;82;21135;-86
2022/06/10 01:11:23;;;;;;;17.73;12.90;;;;;;;14.13;73.17;100623.61;1734511;82;20838;-87
2022/06/10 01:14:04;;;;;;;16.93;12.98;;;;;;;14.10;73.62;100611.99;1745280;82;21442;-86
2022/06/10 01:16:54;;;;;;;15.10;11.88;;;;;;;14.07;73.50;100623.61;1745308;82;20826;-86
2022/06/10 01:19:47;;;;;;;15.10;12.68;;;;;;;14.08;73.49;100619.17;1745114;81;20912;-86
2022/06/10 01:22:44;;;;;;;16.02;11.83;;;;;;;14.08;73.48;100616.05;1745188;82;21231;-84
2022/06/10 01:25:51;;;;;;;15.88;12.18;;;;;;;14.07;73.39;100625.38;1745054;81;21366;-86
2022/06/10 01:28:41;;;;;;;15.10;11.25;;;;;;;13.99;73.65;100619.86;1745307;82;20897;-86
2022/06/10 01:31:35;;;;;;;15.58;12.68;;;;;;;13.99;73.65;100619.86;1745090;81;20992;-87
2022/06/10 01:34:23;;;;;;;17.82;11.97;;;;;;;13.95;73.58;100630.27;1744966;81;21465;-85
2022/06/10 01:37:23;;;;;;;19.77;12.93;;;;;;;13.90;73.84;100626.66;1744951;80;21401;-87
2022/06/10 01:39:55;;;;;;;15.75;12.93;;;;;;;13.86;74.08;100625.20;1742103;82;20928;-86
2022/06/10 01:42:38;;;;;;;17.82;13.00;;;;;;;13.80;74.23;100630.91;1742019;82;21063;-87
2022/06/10 01:45:19;;;;;;;23.15;12.50;;;;;;;13.77;74.43;100628.52;1742080;82;20912;-85
2022/06/10 01:48:03;;;;;;;13.95;11.53;;;;;;;13.73;74.58;100623.09;1741954;82;21011;-87
2022/06/10 01:50:41;;;;;;;17.80;12.05;;;;;;;13.70;74.72;100633.39;1742097;81;21089;-87
2022/06/10 01:53:17;;;;;;;17.62;11.03;;;;;;;13.65;74.72;100627.14;1742209;82;20928;-88
2022/06/10 01:56:09;;;;;;;12.95;10.00;;;;;;;13.65;74.72;100627.14;1741644;82;20880;-87
2022/06/10 01:58:44;;;;;;;17.25;10.10;;;;;;;13.66;74.68;100630.13;1742271;82;21027;-87
2022/06/10 02:01:18;;;;;;;17.35;10.72;;;;;;;13.66;74.55;100634.56;1741690;82;20841;-87
2022/06/10 02:03:55;;;;;;;14.67;10.93;;;;;;;13.65;74.48;100633.73;1742102;82;21977;-87
2022/06/10 02:06:34;;;;;;;19.12;12.37;;;;;;;13.66;74.41;100643.30;1742008;82;21544;-86
2022/06/10 02:09:08;;;;;;;16.65;10.65;;;;;;;13.66;74.35;100637.20;1741865;82;20896;-87
2022/06/10 02:11:36;;;;;;;18.52;10.53;;;;;;;13.65;74.30;100643.41;1742242;82;20916;-86
2022/06/10 02:14:15;;;;;;;18.12;12.00;;;;;;;13.65;74.27;100641.64;1743762;82;20924;-86
2022/06/10 02:16:45;;;;;;;16.62;11.83;;;;;;;13.65;74.16;100641.64;1745340;82;21139;-88
2022/06/10 02:19:35;;;;;;;30.05;12.90;;;;;;;13.65;74.16;100641.64;1745384;82;20920;-88
2022/06/10 02:22:15;;;;;;;19.42;12.30;;;;;;;13.66;74.33;100649.89;1745244;82;20940;-86
2022/06/10 02:24:48;;;;;;;24.00;14.95;;;;;;;13.66;74.44;100655.16;1745085;82;20873;-86
2022/06/10 02:27:19;;;;;;;23.85;13.53;;;;;;;13.66;74.63;100651.20;1745886;81;20920;-87
2022/06/10 02:30:14;;;;;;;25.48;13.65;;;;;;;13.66;75.00;100652.52;1745142;81;21253;-87
2022/06/10 02:32:41;;;;;;;23.12;13.80;;;;;;;13.66;75.35;100660.43;1745110;82;23899;-87
2022/06/10 02:35:09;;;;;;;17.73;12.58;;;;;;;13.68;75.43;100659.02;1745154;81;20979;-87
2022/06/10 02:37:59;;;;;;;21.68;12.58;;;;;;;13.71;75.56;100661.41;1745049;82;20940;-87
2022/06/10 02:40:48;;;;;;;18.02;12.05;;;;;;;13.75;75.46;100658.09;1745300;81;20885;-87
2022/06/10 02:43:53;;;;;;;22.65;12.33;;;;;;;13.80;75.49;100654.63;1745331;81;21774;-86
2022/06/10 02:46:28;;;;;;;19.90;13.13;;;;;;;13.86;75.23;100651.56;1744891;81;21438;-88
2022/06/10 02:49:12;;;;;;;21.35;12.98;;;;;;;13.92;75.08;100662.98;1734949;82;21012;-88
2022/06/10 02:51:40;;;;;;;20.35;12.43;;;;;;;13.97;74.82;100669.23;1745291;80;20936;-88
2022/06/10 02:54:15;;;;;;;24.95;11.57;;;;;;;14.01;74.77;100664.09;1745392;82;21058;-88
2022/06/10 02:56:42;;;;;;;26.68;12.53;;;;;;;14.03;74.77;100666.98;1744623;82;21276;-89
2022/06/10 03:02:12;;;;;;;21.30;12.03;;;;;;;14.13;74.63;100670.25;1745310;82;21358;-88
2022/06/10 03:05:28;;;;;;;19.30;13.18;;;;;;;14.17;74.46;100675.19;1754360;81;21338;-89
2022/06/10 03:08:17;;;;;;;24.10;13.48;;;;;;;14.21;74.47;100671.37;1742902;82;21347;-88
2022/06/10 03:11:08;;;;;;;24.25;12.73;;;;;;;14.28;74.53;100674.39;1742906;82;21259;-87
2022/06/10 03:13:46;;;;;;;24.47;15.00;;;;;;;14.34;74.96;100673.94;1742733;82;20861;-87
2022/06/10 03:16:56;;;;;;;22.60;13.93;;;;;;;14.39;75.20;100671.78;1742599;82;20947;-88
2022/06/10 03:19:56;;;;;;;23.90;14.33;;;;;;;14.49;75.44;100674.56;1742525;82;20939;-87
2022/06/10 03:23:11;;;;;;;23.40;15.85;;;;;;;14.58;75.62;100675.21;1742746;82;20912;-88
2022/06/10 03:25:52;;;;;;;28.35;15.88;;;;;;;14.66;75.46;100663.59;1733012;82;21171;-86
2022/06/10 03:28:29;;;;;;;33.98;17.20;;;;;;;14.76;75.29;100662.89;1732229;81;20913;-88
2022/06/10 03:31:23;;;;;;;31.80;17.07;;;;;;;14.87;75.17;100668.18;1732627;81;20899;-87
2022/06/10 03:33:55;;;;;;;30.72;16.40;;;;;;;14.97;75.29;100670.48;1733071;82;20923;-87
2022/06/10 03:36:23;;;;;;;30.52;18.60;;;;;;;15.20;75.02;100670.48;1732871;82;20968;-87
2022/06/10 03:38:51;;;;;;;26.20;17.10;;;;;;;15.20;75.02;100670.48;1740188;82;21693;-88
2022/06/10 03:41:42;;;;;;;32.20;18.92;;;;;;;15.30;74.30;100665.67;1750383;82;20947;-87
2022/06/10 03:44:13;;;;;;;35.88;18.75;;;;;;;15.45;72.72;100662.30;1725620;82;20951;-87
2022/06/10 03:46:40;;;;;;;30.12;19.30;;;;;;;15.68;72.71;100667.55;1751781;80;20935;-86
2022/06/10 03:49:11;;;;;;;29.92;19.20;;;;;;;16.04;69.79;100662.89;1750451;82;21536;-86
2022/06/10 03:51:39;;;;;;;30.23;19.73;;;;;;;16.04;69.79;100662.89;1726114;82;21202;-87
2022/06/10 03:54:05;;;;;;;30.80;19.95;;;;;;;16.24;67.59;100662.56;1750097;82;20900;-87
2022/06/10 03:56:35;;;;;;;27.07;19.05;;;;;;;16.47;65.89;100661.95;1755009;81;20889;-86
2022/06/10 03:59:02;;;;;;;29.05;18.70;;;;;;;16.70;65.00;100667.97;1758811;81;20880;-88
2022/06/10 04:01:29;;;;;;;31.25;19.37;;;;;;;16.92;66.05;100671.81;1758516;81;20940;-88
2022/06/10 04:03:55;;;;;;;33.25;20.37;;;;;;;17.13;64.10;100672.25;1758512;81;21163;-88
2022/06/10 04:06:22;;;;;;;32.48;17.57;;;;;;;17.35;63.08;100671.22;1758658;81;20877;-86
2022/06/10 04:08:48;;;;;;;28.35;18.73;;;;;;;17.59;62.05;100669.54;1758594;80;20900;-87
2022/06/10 04:11:16;;;;;;;34.70;18.02;;;;;;;17.96;60.75;100670.23;1758718;81;20971;-87
2022/06/10 04:13:44;;;;;;;31.37;17.70;;;;;;;18.56;59.56;100668.73;1758757;80;20880;-88
2022/06/10 04:16:12;;;;;;;32.13;17.50;;;;;;;19.24;58.43;100668.05;1758555;81;21192;-87
2022/06/10 04:18:39;;;;;;;32.53;21.00;;;;;;;19.99;55.92;100673.73;1758407;80;20979;-88
2022/06/10 04:21:06;;;;;;;32.88;18.60;;;;;;;20.77;53.27;100679.71;1758755;81;20858;-88
2022/06/10 04:23:33;;;;;;;33.48;19.75;;;;;;;21.50;51.95;100677.92;1758444;81;21003;-86
2022/06/10 04:26:00;;;;;;;28.07;20.52;;;;;;;22.22;50.30;100667.55;1758510;81;20971;-87
2022/06/10 04:28:27;;;;;;;28.80;19.32;;;;;;;22.90;48.99;100678.81;1758594;80;21137;-88
2022/06/10 04:30:55;;;;;;;32.75;20.02;;;;;;;23.53;46.88;100675.27;1758957;81;20884;-87
2022/06/10 04:33:21;;;;;;;28.52;17.65;;;;;;;24.15;45.79;100682.94;1758485;81;20916;-87
2022/06/10 04:35:49;;;;;;;26.35;18.07;;;;;;;24.69;44.08;100677.45;1758460;81;20932;-88
2022/06/10 04:38:19;;;;;;;23.87;16.55;;;;;;;25.20;42.38;100684.80;1758556;80;20920;-88
2022/06/10 04:40:46;;;;;;;26.40;17.82;;;;;;;25.70;40.61;100684.98;1758636;81;21082;-88
2022/06/10 04:43:13;;;;;;;20.40;13.45;;;;;;;26.15;39.95;100693.77;1758367;81;20916;-89
2022/06/10 04:45:48;;;;;;;18.85;13.62;;;;;;;26.55;38.25;100681.52;1758494;81;20940;-87
2022/06/10 04:48:13;;;;;;;18.73;14.05;;;;;;;26.95;37.24;100689.84;1757707;80;20814;-87
2022/06/10 04:50:41;;;;;;;24.47;14.63;;;;;;;27.36;37.16;100687.69;1758675;81;20873;-88
2022/06/10 04:53:07;;;;;;;26.35;14.05;;;;;;;27.77;36.45;100695.38;1758515;81;21089;-88
2022/06/10 04:55:34;;;;;;;28.25;15.30;;;;;;;28.14;35.13;100689.99;1758587;80;20884;-87
2022/06/10 04:58:00;;;;;;;25.00;14.68;;;;;;;28.49;35.16;100691.19;1758543;81;20904;-87
2022/06/10 05:00:30;;;;;;;22.02;14.40;;;;;;;28.82;34.33;100687.09;1759251;81;21175;-89
2022/06/10 05:02:57;;;;;;;24.65;14.93;;;;;;;29.12;33.88;100686.62;1758554;81;21003;-88
2022/06/10 05:05:23;;;;;;;19.85;11.90;;;;;;;29.41;33.44;100696.59;1748366;81;21860;-88
2022/06/10 05:07:51;;;;;;;19.15;11.65;;;;;;;29.71;32.64;100696.38;1745324;82;20885;-87
2022/06/10 05:10:18;;;;;;;21.85;11.65;;;;;;;29.98;32.30;100699.45;1745225;82;20933;-88
2022/06/10 05:12:46;;;;;;;19.17;12.13;;;;;;;30.24;31.18;100700.61;1745156;81;20964;-88
2022/06/10 05:15:14;;;;;;;17.57;11.73;;;;;;;30.49;31.41;100695.75;1745277;82;20885;-87
2022/06/10 05:17:41;;;;;;;29.42;11.70;;;;;;;30.75;31.07;100693.33;1745450;82;21277;-88
2022/06/10 05:20:11;;;;;;;16.97;10.93;;;;;;;30.98;30.40;100685.38;1745206;82;20944;-89
2022/06/10 05:22:38;;;;;;;23.40;12.43;;;;;;;31.22;29.98;100679.30;1734855;82;20941;-88
2022/06/10 05:25:05;;;;;;;17.60;12.65;;;;;;;31.46;29.55;100680.25;1745750;82;20858;-89
2022/06/10 05:27:32;;;;;;;17.62;13.32;;;;;;;31.70;29.28;100673.86;1745485;82;20877;-87
2022/06/10 05:29:58;;;;;;;19.73;14.95;;;;;;;31.94;29.06;100676.65;1745115;81;21214;-89
2022/06/10 05:32:25;;;;;;;21.25;15.00;;;;;;;32.14;29.11;100680.44;1745364;82;20941;-90
2022/06/10 05:34:53;;;;;;;19.25;16.27;;;;;;;32.34;28.92;100671.42;1745198;82;20975;-88
2022/06/10 05:37:25;;;;;;;24.37;16.62;;;;;;;32.56;28.85;100677.67;1744942;82;20897;-88
2022/06/10 05:39:55;;;;;;;22.00;13.03;;;;;;;32.77;29.14;100681.66;1745547;82;20940;-89
2022/06/10 05:42:22;;;;;;;20.27;11.10;;;;;;;32.94;28.30;100682.58;1745275;82;21867;-89
2022/06/10 05:44:51;;;;;;;20.20;8.93;;;;;;;33.08;26.77;100680.99;1745596;80;20889;-89
2022/06/10 05:47:28;;;;;;;20.00;9.43;;;;;;;33.21;26.32;100674.74;1745298;80;20925;-87
2022/06/10 05:49:57;;;;;;;18.55;9.55;;;;;;;33.42;26.49;100686.05;1745426;81;21028;-88
2022/06/10 05:52:26;;;;;;;14.50;8.25;;;;;;;33.61;26.60;100679.35;1745600;81;21402;-86
2022/06/10 05:54:56;;;;;;;12.13;7.53;;;;;;;33.77;24.72;100683.20;1746016;82;21235;-86
2022/06/10 05:57:23;;;;;;;10.85;7.50;;;;;;;33.90;25.11;100677.97;1745402;81;20893;-88
2022/06/10 05:59:52;;;;;;;8.50;6.65;;;;;;;34.06;25.02;100675.81;1746132;81;20976;-85
2022/06/10 06:02:23;;;;;;;13.88;6.75;;;;;;;34.25;24.99;100676.95;1747553;79;20944;-89
2022/06/10 06:04:50;;;;;;;22.60;10.68;;;;;;;34.44;24.58;100667.96;1747932;80;20972;-87
2022/06/10 06:07:21;;;;;;;12.68;6.92;;;;;;;34.63;24.23;100672.09;1747910;79;21135;-87
2022/06/10 06:09:48;;;;;;;7.78;5.92;;;;;;;34.78;24.17;100676.12;1746666;80;20925;-87
2022/06/10 06:12:15;;;;;;;10.88;5.65;;;;;;;34.95;24.34;100678.27;1690451;82;20931;-86
2022/06/10 06:14:41;;;;;;;9.45;5.78;;;;;;;35.08;23.27;100676.52;1710572;84;20927;-88
2022/06/10 06:17:10;;;;;;;11.83;4.92;;;;;;;35.20;23.38;100669.59;1710242;84;20888;-89
2022/06/10 06:19:38;;;;;;;5.50;4.33;;;;;;;35.34;22.78;100660.47;1710030;84;21422;-87
2022/06/10 06:22:07;;;;;;;11.08;4.22;;;;;;;35.57;23.22;100668.88;1710293;82;20857;-90
2022/06/10 06:24:35;;;;;;;8.25;3.70;;;;;;;35.75;22.55;100658.17;1710483;84;20916;-88
2022/06/10 06:27:04;;;;;;;7.72;4.40;;;;;;;35.85;21.30;100668.38;1710211;84;21334;-88
2022/06/10 06:29:31;;;;;;;8.00;4.92;;;;;;;35.89;22.00;100670.33;1710333;84;20888;-88
2022/06/10 06:31:58;;;;;;;9.43;3.62;;;;;;;36.03;22.96;100662.52;1709788;84;21418;-87
2022/06/10 06:34:25;;;;;;;15.28;3.50;;;;;;;36.15;21.23;100661.55;1709730;82;20880;-89
2022/06/10 06:36:54;;;;;;;10.78;3.08;;;;;;;36.22;19.98;100664.34;1709840;84;21462;-87
2022/06/10 06:39:24;;;;;;;10.58;3.55;;;;;;;36.27;20.51;100661.64;1709646;84;20936;-88
2022/06/10 06:41:53;;;;;;;25.82;3.37;;;;;;;36.40;20.18;100656.82;1745409;82;20929;-88
2022/06/10 06:44:22;;;;;;;17.93;2.70;;;;;;;36.55;19.21;100660.17;1709100;81;21270;-87
2022/06/10 06:46:50;;;;;;;8.85;3.08;;;;;;;36.53;18.55;100668.66;1709796;84;21385;-89
2022/06/10 06:49:21;;;;;;;8.23;3.42;;;;;;;36.40;18.72;100663.66;1709613;84;20864;-87
2022/06/10 06:51:49;;;;;;;9.00;3.50;;;;;;;36.35;19.02;100662.23;1709725;84;20947;-86
2022/06/10 06:54:17;;;;;;;7.72;2.10;;;;;;;36.50;19.41;100663.70;1711663;84;20929;-87
2022/06/10 06:56:47;;;;;;;5.58;1.90;;;;;;;36.62;18.06;100664.36;1712129;84;21149;-88
2022/06/10 06:59:13;;;;;;;7.15;3.27;;;;;;;36.66;18.37;100669.58;1711972;81;20943;-87
2022/06/10 07:01:40;;;;;;;9.15;3.02;;;;;;;36.61;17.91;100656.42;1712225;81;21163;-84
2022/06/10 07:04:06;;;;;;;5.53;1.50;;;;;;;36.61;18.01;100663.25;1716332;82;20936;-87
2022/06/10 07:06:34;;;;;;;4.25;1.45;;;;;;;36.66;17.50;100667.37;1745883;82;20889;-86
2022/06/10 07:09:03;;;;;;;5.80;1.60;;;;;;;36.49;17.61;100660.70;1746283;82;21251;-86
2022/06/10 07:11:33;;;;;;;3.67;1.42;;;;;;;36.42;18.30;100658.72;1746494;82;20944;-88
2022/06/10 07:13:59;;;;;;;6.30;2.08;;;;;;;36.45;17.87;100657.66;1745998;82;20980;-87
2022/06/10 07:16:26;;;;;;;5.17;1.67;;;;;;;36.47;18.48;100652.76;1745766;82;20826;-88
2022/06/10 07:19:58;;;;;;;6.25;1.90;;;;;;;36.75;18.26;100656.75;1818357;78;22346;-86
2022/06/10 07:22:26;;;;;;;5.95;1.65;;;;;;;36.89;18.14;100665.58;1789768;80;20943;-89
2022/06/10 07:24:54;;;;;;;5.15;1.62;;;;;;;37.01;17.93;100664.53;1789664;79;21133;-87
2022/06/10 07:27:21;;;;;;;3.50;1.85;;;;;;;37.11;18.03;100657.23;1789563;80;20995;-88
2022/06/10 07:30:03;;;;;;;3.00;1.80;;;;;;;37.26;17.21;100651.51;1789948;79;20951;-87
2022/06/10 07:32:44;;;;;;;7.35;4.40;;;;;;;37.36;17.70;100652.09;1785483;79;21389;-88
2022/06/10 07:35:13;;;;;;;5.00;1.50;;;;;;;37.48;17.00;100656.76;1789587;80;20862;-88
2022/06/10 07:37:39;;;;;;;5.53;1.65;;;;;;;37.57;18.01;100662.55;1789406;80;21047;-89
2022/06/10 07:41:56;;;;;;;6.47;1.60;;;;;;;37.67;17.38;100662.02;1789303;80;20932;-89
2022/06/10 07:42:37;;;;;;;4.67;1.37;;;;;;;37.77;17.50;100659.83;1784814;79;20916;-87
2022/06/10 07:45:04;;;;;;;9.80;1.65;;;;;;;37.94;17.59;100661.76;1758565;80;20948;-89
2022/06/10 07:47:31;;;;;;;5.00;1.30;;;;;;;38.09;17.33;100660.16;1789947;80;20920;-87
2022/06/10 07:49:59;;;;;;;5.53;1.37;;;;;;;38.14;16.94;100661.52;1789352;79;21131;-86
2022/06/10 07:52:28;;;;;;;6.42;1.40;;;;;;;38.17;16.62;100658.77;1789063;79;21698;-86
2022/06/10 07:55:00;;;;;;;1.30;0.80;;;;;;;38.20;16.37;100660.94;1789595;79;20900;-89
2022/06/10 07:57:27;;;;;;;4.83;1.42;;;;;;;38.20;16.64;100649.98;1789546;79;20980;-88
2022/06/10 07:59:53;;;;;;;3.22;1.25;;;;;;;38.18;17.38;100648.91;1789610;79;20917;-88
2022/06/10 08:02:23;;;;;;;3.95;2.08;;;;;;;38.28;17.83;100664.50;1789251;80;20952;-90
2022/06/10 08:04:50;;;;;;;20.10;12.03;;;;;;;38.33;16.06;100657.63;1789393;79;20944;-90
2022/06/10 08:07:18;;;;;;;9.50;3.87;;;;;;;38.32;16.52;100660.92;1790302;80;21007;-88
2022/06/10 08:09:44;;;;;;;6.47;1.62;;;;;;;38.41;17.44;100660.37;1790293;79;20932;-86
2022/06/10 08:12:11;;;;;;;2.20;1.95;;;;;;;38.55;16.82;100654.08;1789620;79;20956;-88
2022/06/10 08:14:37;;;;;;;6.65;1.60;;;;;;;38.72;16.50;100657.84;1789654;80;21078;-89
2022/06/10 08:17:07;;;;;;;4.75;2.20;;;;;;;38.90;16.25;100659.14;1790524;79;20912;-87
2022/06/10 08:19:34;;;;;;;7.47;1.90;;;;;;;38.90;15.71;100674.22;1829192;77;20913;-88
2022/06/10 08:24:46;;;;;;;12.58;5.62;;;;;;;38.76;15.77;100679.48;1842748;78;20870;-89
2022/06/10 08:27:14;;;;;;;6.17;3.58;;;;;;;38.45;15.86;100670.50;1842367;77;21169;-88
2022/06/10 08:29:41;;;;;;;3.00;2.27;;;;;;;38.28;16.08;100672.16;1842065;77;20945;-88
2022/06/10 08:32:08;;;;;;;4.47;2.12;;;;;;;38.17;16.03;100660.95;1841270;77;20929;-87
2022/06/10 08:34:36;;;;;;;2.72;2.15;;;;;;;38.17;16.09;100657.39;1785458;79;20860;-87
2022/06/10 08:37:04;;;;;;;9.13;2.33;;;;;;;38.27;17.21;100653.28;1785354;80;20908;-88
2022/06/10 08:39:30;;;;;;;6.80;0.68;;;;;;;38.46;16.87;100661.16;1786441;79;21379;-87
2022/06/10 08:42:33;;;;;;;0.90;0.70;;;;;;;38.42;15.68;100651.88;1786144;79;21351;-86
2022/06/10 08:45:05;;;;;;;3.60;0.82;;;;;;;38.31;16.01;100657.09;1786227;79;20930;-86
2022/06/10 08:47:51;;;;;;;6.17;1.00;;;;;;;38.28;16.39;100648.06;1784394;78;20879;-87
2022/06/10 08:50:40;;;;;;;4.50;1.20;;;;;;;38.38;16.56;100659.54;1785759;79;21487;-86
2022/06/10 08:53:21;;;;;;;5.10;1.75;;;;;;;38.35;15.56;100656.28;1785664;79;21282;-88
2022/06/10 08:56:29;;;;;;;5.00;1.97;;;;;;;38.15;15.65;100655.77;1786779;80;20922;-87
2022/06/10 08:59:03;;;;;;;4.80;0.98;;;;;;;37.94;16.35;100650.80;1785995;79;20915;-87
2022/06/10 09:01:36;;;;;;;1.80;1.00;;;;;;;37.97;16.28;100650.80;1786178;79;20903;-86
2022/06/10 09:04:11;;;;;;;3.85;1.30;;;;;;;38.00;16.79;100643.95;1785393;80;21388;-85
2022/06/10 09:06:48;;;;;;;3.72;0.95;;;;;;;38.05;15.92;100644.81;1784663;80;21067;-85
2022/06/10 09:09:14;;;;;;;7.72;1.65;;;;;;;38.04;16.57;100643.70;1785458;79;20931;-86
2022/06/10 09:11:51;;;;;;;6.75;1.67;;;;;;;38.24;16.67;100651.89;1752957;80;20965;-87
2022/06/10 09:14:21;;;;;;;2.22;1.15;;;;;;;38.45;16.21;100651.88;1841362;77;20942;-85
2022/06/10 09:17:14;;;;;;;5.12;1.20;;;;;;;38.49;15.59;100646.95;1785440;79;20919;-87
2022/06/10 09:20:18;;;;;;;5.58;0.85;;;;;;;38.32;16.39;100649.16;1780034;79;21319;-88
2022/06/10 09:23:03;;;;;;;3.22;0.90;;;;;;;38.26;16.35;100647.52;1777221;80;20888;-88
2022/06/10 09:25:42;;;;;;;1.47;1.00;;;;;;;38.29;16.98;100642.87;1777238;79;20916;-88
2022/06/10 09:28:08;;;;;;;2.25;1.00;;;;;;;38.45;17.04;100631.32;1777235;80;20987;-88
2022/06/10 09:30:53;;;;;;;6.75;1.00;;;;;;;38.52;16.87;100639.53;1777371;79;20888;-89
2022/06/10 09:33:27;;;;;;;5.58;1.20;;;;;;;38.63;16.64;100645.81;1777080;80;21115;-88
2022/06/10 09:36:37;;;;;;;4.47;0.72;;;;;;;38.64;16.13;100654.30;1777458;79;20916;-86
2022/06/10 09:40:35;;;;;;;7.08;1.62;;;;;;;38.62;16.25;100644.71;1713136;83;20908;-89
2022/06/10 09:42:37;;;;;;;6.35;1.17;;;;;;;38.71;17.27;100635.65;1663634;85;20951;-89
2022/06/10 09:45:22;;;;;;;4.72;1.17;;;;;;;38.87;17.21;100639.70;1724217;83;20993;-89
2022/06/10 09:48:20;;;;;;;6.28;1.05;;;;;;;39.11;16.51;100639.86;1724162;83;21170;-88
2022/06/10 09:51:08;;;;;;;2.35;0.75;;;;;;;39.23;16.04;100634.05;1724218;80;21004;-88
2022/06/10 09:53:49;;;;;;;2.58;0.90;;;;;;;39.18;15.86;100643.14;1725845;80;20994;-88
2022/06/10 09:56:56;;;;;;;5.75;1.15;;;;;;;38.97;15.35;100637.73;1725533;80;21184;-88
2022/06/10 09:59:34;;;;;;;3.72;1.20;;;;;;;38.79;15.63;100641.09;1700726;80;21081;-89
2022/06/10 10:02:18;;;;;;;6.62;2.67;;;;;;;38.74;15.88;100638.38;1725332;80;21052;-90
2022/06/10 10:05:40;;;;;;;3.70;1.00;;;;;;;38.63;15.95;100637.59;1725185;80;20832;-91
2022/06/10 10:08:21;;;;;;;;;;;;;;;38.60;16.52;100631.30;1728064;80;21102;-90
2022/06/10 10:10:58;;;;;;;3.65;0.85;;;;;;;38.74;16.33;100629.59;1780222;77;20149;-89
2022/06/10 10:13:53;;;;;;;4.20;1.42;;;;;;;38.80;16.68;100628.19;1787578;77;20852;-90
2022/06/10 10:16:40;;;;;;;6.67;1.07;;;;;;;38.81;16.51;100629.29;1731625;79;21111;-87
2022/06/10 10:19:25;;;;;;;3.70;0.62;;;;;;;38.83;16.07;100636.69;1772522;77;20974;-89
2022/06/10 10:22:22;;;;;;;2.85;0.98;;;;;;;38.84;16.14;100625.98;1799042;76;20865;-86
2022/06/10 10:24:50;;;;;;;3.75;1.20;;;;;;;38.89;16.04;100617.75;1798453;76;20860;-89
2022/06/10 10:27:28;;;;;;;4.03;2.10;;;;;;;39.04;16.57;100614.67;1798993;78;21205;-88
2022/06/10 10:30:00;;;;;;;6.53;1.95;;;;;;;39.16;16.64;100614.61;1771245;77;21120;-88
2022/06/10 10:32:34;;;;;;;4.42;1.47;;;;;;;39.22;16.28;100613.19;1799290;75;21006;-88
2022/06/10 10:35:05;;;;;;;2.55;0.90;;;;;;;39.24;16.22;100618.66;1778419;77;20943;-88
2022/06/10 10:37:35;;;;;;;2.08;0.62;;;;;;;39.29;16.40;100613.16;1798393;77;20919;-86
2022/06/10 10:40:19;;;;;;;2.62;0.72;;;;;;;39.24;15.37;100614.55;1798951;78;20907;-88
2022/06/10 10:42:45;;;;;;;2.12;0.88;;;;;;;39.08;15.59;100609.70;1778999;79;21110;-88
2022/06/10 10:45:23;;;;;;;2.20;0.70;;;;;;;38.97;15.58;100612.24;1796784;79;20903;-89
2022/06/10 10:48:00;;;;;;;3.55;1.00;;;;;;;38.99;15.69;100605.11;1796712;79;20946;-89
2022/06/10 10:50:35;;;;;;;3.75;1.98;;;;;;;39.07;15.91;100616.87;1776406;80;21541;-88
2022/06/10 10:53:20;;;;;;;3.95;1.30;;;;;;;39.03;15.81;100609.75;1796582;80;21400;-90
2022/06/10 10:55:50;;;;;;;2.10;0.78;;;;;;;38.97;15.96;100620.47;1773940;79;21290;-88
2022/06/10 10:58:23;;;;;;;5.90;1.50;;;;;;;38.94;15.61;100599.92;1796320;78;20951;-88
2022/06/10 11:00:59;;;;;;;;;;;;;;;38.92;16.16;100610.31;1799277;79;20876;-87
2022/06/10 11:03:33;;;;;;;4.10;0.90;;;;;;;38.89;15.41;100610.89;1794284;80;20087;-87
2022/06/10 11:06:05;;;;;;;2.67;1.87;;;;;;;38.73;15.71;100614.26;1796001;79;20978;-88
2022/06/10 11:08:38;;;;;;;12.30;8.90;;;;;;;38.64;16.13;100606.87;1796677;79;21429;-88
2022/06/10 11:11:22;;;;;;;16.32;15.20;;;;;;;38.63;16.37;100600.58;1796296;79;20879;-88
2022/06/10 11:13:58;;;;;;;2.10;1.37;;;;;;;38.69;16.56;100594.55;1795819;79;20981;-89
2022/06/10 11:16:44;;;;;;;2.35;1.30;;;;;;;38.73;16.48;100606.03;1794798;78;21341;-88
2022/06/10 11:19:12;;;;;;;3.70;1.00;;;;;;;38.68;16.54;100601.11;1789176;79;20959;-86
2022/06/10 11:22:00;;;;;;;1.50;0.70;;;;;;;38.55;16.58;100590.19;1782762;78;21102;-86
2022/06/10 11:24:31;;;;;;;5.80;1.10;;;;;;;38.36;16.85;100589.41;1823338;77;20909;-87
2022/06/10 11:27:02;;;;;;;;;;;;;;;38.20;17.58;100595.19;1826497;77;20922;-88
2022/06/10 11:29:29;;;;;;;3.90;1.10;;;;;;;37.99;16.87;100588.91;1823850;77;20113;-87
2022/06/10 11:32:01;;;;;;;4.08;0.82;;;;;;;37.60;16.82;100584.84;1824124;77;20870;-87
2022/06/10 11:34:38;;;;;;;4.55;1.25;;;;;;;37.24;17.27;100571.63;1824018;77;21905;-88
2022/06/10 11:37:36;;;;;;;5.53;0.80;;;;;;;36.93;17.20;100585.20;1824043;77;20874;-87
2022/06/10 11:40:16;;;;;;;5.87;1.15;;;;;;;36.56;17.12;100594.89;1824000;76;20949;-87
2022/06/10 11:42:53;;;;;;;1.52;1.02;;;;;;;35.98;18.14;100587.41;1824111;77;20898;-88
2022/06/10 11:45:27;;;;;;;4.22;1.40;;;;;;;35.64;18.49;100581.40;1824138;77;20894;-89
2022/06/10 11:47:58;;;;;;;2.67;1.40;;;;;;;35.40;18.56;100578.18;1824301;77;21314;-88
2022/06/10 11:50:48;;;;;;;3.75;0.78;;;;;;;35.11;19.25;100577.56;1824145;77;20910;-88
2022/06/10 11:53:26;;;;;;;1.77;1.00;;;;;;;34.90;19.37;100576.52;1824482;77;20902;-89
2022/06/10 11:59:42;;;;;;;1.15;0.75;;;;;;;34.69;19.64;100579.56;1825281;77;20878;-90
2022/06/10 12:01:17;;;;;;;4.12;1.80;;;;;;;34.29;20.22;100575.19;1822142;76;21430;-89